sensor_id;sensor_type;location;lat;lon;timestamp;P1;durP1;ratioP1;P2;durP2;ratioP2
74074;SDS011;62428;51.412;5.432;2022-09-29T00:00:19;6.28;;;3.38;;
74074;SDS011;62428;51.412;5.432;2022-09-29T00:02:45;7.10;;;3.75;;
74074;SDS011;62428;51.412;5.432;2022-09-29T00:05:10;8.57;;;3.93;;
74074;SDS011;62428;51.412;5.432;2022-09-29T00:07:35;6.67;;;4.10;;
74074;SDS011;62428;51.412;5.432;2022-09-29T00:10:01;7.90;;;3.60;;
74074;SDS011;62428;51.412;5.432;2022-09-29T00:12:26;6.20;;;3.47;;
74074;SDS011;62428;51.412;5.432;2022-09-29T00:14:52;6.22;;;3.80;;
74074;SDS011;62428;51.412;5.432;2022-09-29T00:17:17;7.07;;;3.70;;
74074;SDS011;62428;51.412;5.432;2022-09-29T00:19:42;5.57;;;3.60;;
74074;SDS011;62428;51.412;5.432;2022-09-29T00:22:08;5.13;;;3.83;;
74074;SDS011;62428;51.412;5.432;2022-09-29T00:24:33;5.87;;;4.00;;
74074;SDS011;62428;51.412;5.432;2022-09-29T00:26:59;5.47;;;3.90;;
74074;SDS011;62428;51.412;5.432;2022-09-29T00:29:24;6.00;;;3.83;;
74074;SDS011;62428;51.412;5.432;2022-09-29T00:31:50;6.28;;;3.78;;
74074;SDS011;62428;51.412;5.432;2022-09-29T00:34:16;6.57;;;3.63;;
74074;SDS011;62428;51.412;5.432;2022-09-29T00:36:41;8.63;;;3.90;;
74074;SDS011;62428;51.412;5.432;2022-09-29T00:39:06;9.93;;;4.80;;
74074;SDS011;62428;51.412;5.432;2022-09-29T00:41:33;6.90;;;3.70;;
74074;SDS011;62428;51.412;5.432;2022-09-29T00:51:49;6.87;;;3.40;;
74074;SDS011;62428;51.412;5.432;2022-09-29T00:54:19;7.22;;;3.67;;
74074;SDS011;62428;51.412;5.432;2022-09-29T00:56:45;7.47;;;4.20;;
74074;SDS011;62428;51.412;5.432;2022-09-29T00:59:13;7.68;;;3.90;;
74074;SDS011;62428;51.412;5.432;2022-09-29T01:01:45;6.63;;;3.90;;
74074;SDS011;62428;51.412;5.432;2022-09-29T01:04:13;6.50;;;3.60;;
74074;SDS011;62428;51.412;5.432;2022-09-29T01:06:44;5.30;;;3.75;;
74074;SDS011;62428;51.412;5.432;2022-09-29T01:09:15;7.93;;;4.07;;
74074;SDS011;62428;51.412;5.432;2022-09-29T01:11:43;6.40;;;4.00;;
74074;SDS011;62428;51.412;5.432;2022-09-29T01:14:09;5.80;;;4.07;;
74074;SDS011;62428;51.412;5.432;2022-09-29T01:16:36;6.22;;;4.20;;
74074;SDS011;62428;51.412;5.432;2022-09-29T01:19:14;8.70;;;3.88;;
74074;SDS011;62428;51.412;5.432;2022-09-29T01:21:55;9.60;;;4.00;;
74074;SDS011;62428;51.412;5.432;2022-09-29T01:27:23;6.35;;;3.83;;
74074;SDS011;62428;51.412;5.432;2022-09-29T01:29:56;6.90;;;4.15;;
74074;SDS011;62428;51.412;5.432;2022-09-29T01:35:50;4.97;;;4.07;;
74074;SDS011;62428;51.412;5.432;2022-09-29T01:41:17;6.07;;;4.10;;
74074;SDS011;62428;51.412;5.432;2022-09-29T01:44:15;10.95;;;4.57;;
74074;SDS011;62428;51.412;5.432;2022-09-29T01:46:52;6.68;;;4.68;;
74074;SDS011;62428;51.412;5.432;2022-09-29T01:49:22;8.98;;;4.50;;
74074;SDS011;62428;51.412;5.432;2022-09-29T01:54:24;7.70;;;4.53;;
74074;SDS011;62428;51.412;5.432;2022-09-29T01:56:59;6.40;;;4.53;;
74074;SDS011;62428;51.412;5.432;2022-09-29T01:59:35;8.05;;;4.28;;
74074;SDS011;62428;51.412;5.432;2022-09-29T02:02:25;5.93;;;4.40;;
74074;SDS011;62428;51.412;5.432;2022-09-29T02:04:56;6.72;;;4.22;;
74074;SDS011;62428;51.412;5.432;2022-09-29T02:07:27;6.07;;;4.40;;
74074;SDS011;62428;51.412;5.432;2022-09-29T02:10:08;6.72;;;4.20;;
74074;SDS011;62428;51.412;5.432;2022-09-29T02:12:38;7.07;;;4.20;;
74074;SDS011;62428;51.412;5.432;2022-09-29T02:15:05;10.55;;;4.47;;
74074;SDS011;62428;51.412;5.432;2022-09-29T02:17:35;6.75;;;4.38;;
74074;SDS011;62428;51.412;5.432;2022-09-29T02:20:02;6.90;;;4.70;;
74074;SDS011;62428;51.412;5.432;2022-09-29T02:22:28;8.63;;;4.78;;
74074;SDS011;62428;51.412;5.432;2022-09-29T02:24:54;6.63;;;4.60;;
74074;SDS011;62428;51.412;5.432;2022-09-29T02:27:23;7.50;;;4.43;;
74074;SDS011;62428;51.412;5.432;2022-09-29T02:29:50;7.50;;;4.60;;
74074;SDS011;62428;51.412;5.432;2022-09-29T02:32:16;11.70;;;4.63;;
74074;SDS011;62428;51.412;5.432;2022-09-29T02:34:44;6.00;;;4.35;;
74074;SDS011;62428;51.412;5.432;2022-09-29T02:45:46;7.28;;;4.75;;
74074;SDS011;62428;51.412;5.432;2022-09-29T02:48:25;7.75;;;4.30;;
74074;SDS011;62428;51.412;5.432;2022-09-29T02:53:27;10.38;;;4.32;;
74074;SDS011;62428;51.412;5.432;2022-09-29T02:56:06;7.28;;;4.40;;
74074;SDS011;62428;51.412;5.432;2022-09-29T02:59:14;6.25;;;5.00;;
74074;SDS011;62428;51.412;5.432;2022-09-29T03:01:48;6.68;;;4.53;;
74074;SDS011;62428;51.412;5.432;2022-09-29T03:04:18;8.38;;;4.60;;
74074;SDS011;62428;51.412;5.432;2022-09-29T03:06:46;8.73;;;4.28;;
74074;SDS011;62428;51.412;5.432;2022-09-29T03:09:11;6.97;;;4.57;;
74074;SDS011;62428;51.412;5.432;2022-09-29T03:11:36;6.80;;;4.90;;
74074;SDS011;62428;51.412;5.432;2022-09-29T03:14:02;8.33;;;4.90;;
74074;SDS011;62428;51.412;5.432;2022-09-29T03:16:28;10.57;;;5.32;;
74074;SDS011;62428;51.412;5.432;2022-09-29T03:18:53;8.67;;;4.70;;
74074;SDS011;62428;51.412;5.432;2022-09-29T03:21:21;6.70;;;4.65;;
74074;SDS011;62428;51.412;5.432;2022-09-29T03:23:46;6.95;;;4.53;;
74074;SDS011;62428;51.412;5.432;2022-09-29T03:26:11;9.27;;;5.00;;
74074;SDS011;62428;51.412;5.432;2022-09-29T03:28:37;8.77;;;5.53;;
74074;SDS011;62428;51.412;5.432;2022-09-29T03:31:03;12.23;;;4.50;;
74074;SDS011;62428;51.412;5.432;2022-09-29T03:33:34;7.78;;;4.95;;
74074;SDS011;62428;51.412;5.432;2022-09-29T03:36:00;8.95;;;4.75;;
74074;SDS011;62428;51.412;5.432;2022-09-29T03:38:27;9.20;;;5.07;;
74074;SDS011;62428;51.412;5.432;2022-09-29T03:40:53;7.10;;;5.20;;
74074;SDS011;62428;51.412;5.432;2022-09-29T03:43:18;7.53;;;4.70;;
74074;SDS011;62428;51.412;5.432;2022-09-29T03:45:50;10.67;;;4.93;;
74074;SDS011;62428;51.412;5.432;2022-09-29T03:48:17;12.23;;;5.30;;
74074;SDS011;62428;51.412;5.432;2022-09-29T03:50:44;8.20;;;5.00;;
74074;SDS011;62428;51.412;5.432;2022-09-29T03:53:10;9.18;;;5.07;;
74074;SDS011;62428;51.412;5.432;2022-09-29T03:55:35;9.18;;;5.30;;
74074;SDS011;62428;51.412;5.432;2022-09-29T03:58:01;13.30;;;5.37;;
74074;SDS011;62428;51.412;5.432;2022-09-29T04:00:26;6.50;;;5.00;;
74074;SDS011;62428;51.412;5.432;2022-09-29T04:02:54;7.80;;;4.97;;
74074;SDS011;62428;51.412;5.432;2022-09-29T04:05:20;8.27;;;5.20;;
74074;SDS011;62428;51.412;5.432;2022-09-29T04:07:46;7.00;;;5.30;;
74074;SDS011;62428;51.412;5.432;2022-09-29T04:10:11;7.80;;;5.20;;
74074;SDS011;62428;51.412;5.432;2022-09-29T04:12:37;8.05;;;5.22;;
74074;SDS011;62428;51.412;5.432;2022-09-29T04:15:02;8.40;;;5.30;;
74074;SDS011;62428;51.412;5.432;2022-09-29T04:17:28;8.55;;;5.45;;
74074;SDS011;62428;51.412;5.432;2022-09-29T04:19:54;6.57;;;5.00;;
74074;SDS011;62428;51.412;5.432;2022-09-29T04:22:19;9.87;;;5.60;;
74074;SDS011;62428;51.412;5.432;2022-09-29T04:24:45;10.18;;;5.93;;
74074;SDS011;62428;51.412;5.432;2022-09-29T04:27:12;9.03;;;5.47;;
74074;SDS011;62428;51.412;5.432;2022-09-29T04:29:38;9.52;;;5.80;;
74074;SDS011;62428;51.412;5.432;2022-09-29T04:32:03;11.33;;;5.33;;
74074;SDS011;62428;51.412;5.432;2022-09-29T04:34:30;8.82;;;5.68;;
74074;SDS011;62428;51.412;5.432;2022-09-29T04:36:55;10.23;;;5.40;;
74074;SDS011;62428;51.412;5.432;2022-09-29T04:39:20;8.23;;;5.28;;
74074;SDS011;62428;51.412;5.432;2022-09-29T04:41:46;9.30;;;5.50;;
74074;SDS011;62428;51.412;5.432;2022-09-29T04:44:11;9.23;;;5.53;;
74074;SDS011;62428;51.412;5.432;2022-09-29T04:46:37;8.30;;;5.73;;
74074;SDS011;62428;51.412;5.432;2022-09-29T04:49:02;8.63;;;5.88;;
74074;SDS011;62428;51.412;5.432;2022-09-29T04:51:27;10.10;;;5.32;;
74074;SDS011;62428;51.412;5.432;2022-09-29T04:53:53;9.43;;;6.00;;
74074;SDS011;62428;51.412;5.432;2022-09-29T04:56:18;10.07;;;5.83;;
74074;SDS011;62428;51.412;5.432;2022-09-29T04:58:44;10.27;;;5.73;;
74074;SDS011;62428;51.412;5.432;2022-09-29T05:01:10;9.47;;;6.00;;
74074;SDS011;62428;51.412;5.432;2022-09-29T05:03:39;11.20;;;5.63;;
74074;SDS011;62428;51.412;5.432;2022-09-29T05:06:06;9.73;;;5.90;;
74074;SDS011;62428;51.412;5.432;2022-09-29T05:08:33;9.27;;;5.90;;
74074;SDS011;62428;51.412;5.432;2022-09-29T05:11:01;8.47;;;5.93;;
74074;SDS011;62428;51.412;5.432;2022-09-29T05:13:28;8.73;;;6.20;;
74074;SDS011;62428;51.412;5.432;2022-09-29T05:15:54;9.30;;;5.70;;
74074;SDS011;62428;51.412;5.432;2022-09-29T05:18:21;9.32;;;5.65;;
74074;SDS011;62428;51.412;5.432;2022-09-29T05:20:46;8.77;;;5.23;;
74074;SDS011;62428;51.412;5.432;2022-09-29T05:23:12;9.40;;;5.47;;
74074;SDS011;62428;51.412;5.432;2022-09-29T05:25:37;9.17;;;5.50;;
74074;SDS011;62428;51.412;5.432;2022-09-29T05:28:04;11.13;;;5.78;;
74074;SDS011;62428;51.412;5.432;2022-09-29T05:30:29;9.13;;;5.80;;
74074;SDS011;62428;51.412;5.432;2022-09-29T05:32:55;12.73;;;5.97;;
74074;SDS011;62428;51.412;5.432;2022-09-29T05:35:20;14.65;;;6.15;;
74074;SDS011;62428;51.412;5.432;2022-09-29T05:37:45;9.48;;;5.65;;
74074;SDS011;62428;51.412;5.432;2022-09-29T05:40:11;8.00;;;5.40;;
74074;SDS011;62428;51.412;5.432;2022-09-29T05:42:36;9.07;;;6.23;;
74074;SDS011;62428;51.412;5.432;2022-09-29T05:45:02;8.57;;;5.37;;
74074;SDS011;62428;51.412;5.432;2022-09-29T05:47:27;10.13;;;6.65;;
74074;SDS011;62428;51.412;5.432;2022-09-29T05:49:52;10.10;;;5.97;;
74074;SDS011;62428;51.412;5.432;2022-09-29T05:52:18;9.17;;;6.23;;
74074;SDS011;62428;51.412;5.432;2022-09-29T05:54:44;10.43;;;6.43;;
74074;SDS011;62428;51.412;5.432;2022-09-29T05:57:10;9.73;;;6.65;;
74074;SDS011;62428;51.412;5.432;2022-09-29T05:59:35;11.60;;;6.43;;
74074;SDS011;62428;51.412;5.432;2022-09-29T06:02:00;8.57;;;5.90;;
74074;SDS011;62428;51.412;5.432;2022-09-29T06:04:26;12.33;;;6.60;;
74074;SDS011;62428;51.412;5.432;2022-09-29T06:06:51;16.67;;;7.82;;
74074;SDS011;62428;51.412;5.432;2022-09-29T06:09:19;10.83;;;6.83;;
74074;SDS011;62428;51.412;5.432;2022-09-29T06:11:44;14.10;;;7.15;;
74074;SDS011;62428;51.412;5.432;2022-09-29T06:14:09;14.38;;;6.93;;
74074;SDS011;62428;51.412;5.432;2022-09-29T06:16:35;12.53;;;6.73;;
74074;SDS011;62428;51.412;5.432;2022-09-29T06:19:00;11.20;;;6.73;;
74074;SDS011;62428;51.412;5.432;2022-09-29T06:21:27;15.88;;;7.05;;
74074;SDS011;62428;51.412;5.432;2022-09-29T06:23:54;12.15;;;6.93;;
74074;SDS011;62428;51.412;5.432;2022-09-29T06:26:20;12.07;;;7.15;;
74074;SDS011;62428;51.412;5.432;2022-09-29T06:28:46;17.63;;;7.75;;
74074;SDS011;62428;51.412;5.432;2022-09-29T06:31:13;13.63;;;8.02;;
74074;SDS011;62428;51.412;5.432;2022-09-29T06:33:40;12.43;;;7.90;;
74074;SDS011;62428;51.412;5.432;2022-09-29T06:36:18;15.45;;;7.63;;
74074;SDS011;62428;51.412;5.432;2022-09-29T06:39:06;11.63;;;7.20;;
74074;SDS011;62428;51.412;5.432;2022-09-29T06:41:32;14.05;;;8.15;;
74074;SDS011;62428;51.412;5.432;2022-09-29T06:43:59;14.80;;;8.50;;
74074;SDS011;62428;51.412;5.432;2022-09-29T06:46:25;14.63;;;8.63;;
74074;SDS011;62428;51.412;5.432;2022-09-29T06:48:51;15.70;;;8.20;;
74074;SDS011;62428;51.412;5.432;2022-09-29T06:51:17;13.40;;;8.45;;
74074;SDS011;62428;51.412;5.432;2022-09-29T06:53:46;18.50;;;8.57;;
74074;SDS011;62428;51.412;5.432;2022-09-29T06:56:11;16.40;;;9.30;;
74074;SDS011;62428;51.412;5.432;2022-09-29T06:58:37;17.67;;;9.17;;
74074;SDS011;62428;51.412;5.432;2022-09-29T07:01:02;19.77;;;9.47;;
74074;SDS011;62428;51.412;5.432;2022-09-29T07:03:29;19.35;;;8.90;;
74074;SDS011;62428;51.412;5.432;2022-09-29T07:05:55;17.15;;;9.30;;
74074;SDS011;62428;51.412;5.432;2022-09-29T07:08:21;17.83;;;9.73;;
74074;SDS011;62428;51.412;5.432;2022-09-29T07:10:46;20.07;;;9.23;;
74074;SDS011;62428;51.412;5.432;2022-09-29T07:13:12;18.63;;;9.60;;
74074;SDS011;62428;51.412;5.432;2022-09-29T07:15:37;14.83;;;8.90;;
74074;SDS011;62428;51.412;5.432;2022-09-29T07:18:03;16.77;;;9.17;;
74074;SDS011;62428;51.412;5.432;2022-09-29T07:20:29;15.82;;;9.95;;
74074;SDS011;62428;51.412;5.432;2022-09-29T07:22:58;20.30;;;10.65;;
74074;SDS011;62428;51.412;5.432;2022-09-29T07:25:23;20.27;;;9.73;;
74074;SDS011;62428;51.412;5.432;2022-09-29T07:27:49;18.70;;;10.23;;
74074;SDS011;62428;51.412;5.432;2022-09-29T07:30:15;17.65;;;9.25;;
74074;SDS011;62428;51.412;5.432;2022-09-29T07:32:42;20.00;;;10.75;;
74074;SDS011;62428;51.412;5.432;2022-09-29T07:35:07;17.70;;;9.50;;
74074;SDS011;62428;51.412;5.432;2022-09-29T07:37:33;18.13;;;9.43;;
74074;SDS011;62428;51.412;5.432;2022-09-29T07:39:59;19.48;;;9.38;;
74074;SDS011;62428;51.412;5.432;2022-09-29T07:42:26;19.57;;;8.43;;
74074;SDS011;62428;51.412;5.432;2022-09-29T07:44:52;18.65;;;9.45;;
74074;SDS011;62428;51.412;5.432;2022-09-29T07:47:18;17.40;;;9.47;;
74074;SDS011;62428;51.412;5.432;2022-09-29T07:49:43;15.13;;;9.23;;
74074;SDS011;62428;51.412;5.432;2022-09-29T07:52:09;17.67;;;9.00;;
74074;SDS011;62428;51.412;5.432;2022-09-29T07:54:34;17.17;;;9.67;;
74074;SDS011;62428;51.412;5.432;2022-09-29T07:56:59;16.88;;;9.45;;
74074;SDS011;62428;51.412;5.432;2022-09-29T07:59:27;18.58;;;10.48;;
74074;SDS011;62428;51.412;5.432;2022-09-29T08:01:53;16.55;;;9.45;;
74074;SDS011;62428;51.412;5.432;2022-09-29T08:04:18;19.40;;;9.60;;
74074;SDS011;62428;51.412;5.432;2022-09-29T08:06:44;19.83;;;9.53;;
74074;SDS011;62428;51.412;5.432;2022-09-29T08:09:10;17.77;;;9.73;;
74074;SDS011;62428;51.412;5.432;2022-09-29T08:11:36;17.02;;;9.27;;
74074;SDS011;62428;51.412;5.432;2022-09-29T08:14:03;16.97;;;9.20;;
74074;SDS011;62428;51.412;5.432;2022-09-29T08:16:28;17.33;;;9.90;;
74074;SDS011;62428;51.412;5.432;2022-09-29T08:18:54;22.93;;;9.83;;
74074;SDS011;62428;51.412;5.432;2022-09-29T08:21:19;18.37;;;10.07;;
74074;SDS011;62428;51.412;5.432;2022-09-29T08:23:45;19.17;;;9.70;;
74074;SDS011;62428;51.412;5.432;2022-09-29T08:26:12;16.95;;;9.85;;
74074;SDS011;62428;51.412;5.432;2022-09-29T08:28:42;19.10;;;9.07;;
74074;SDS011;62428;51.412;5.432;2022-09-29T08:31:11;17.77;;;8.88;;
74074;SDS011;62428;51.412;5.432;2022-09-29T08:33:38;13.82;;;8.25;;
74074;SDS011;62428;51.412;5.432;2022-09-29T08:36:04;12.52;;;7.80;;
74074;SDS011;62428;51.412;5.432;2022-09-29T08:38:39;14.60;;;8.88;;
74074;SDS011;62428;51.412;5.432;2022-09-29T08:43:53;11.57;;;7.43;;
74074;SDS011;62428;51.412;5.432;2022-09-29T08:46:26;17.67;;;8.10;;
74074;SDS011;62428;51.412;5.432;2022-09-29T08:48:55;14.57;;;7.38;;
74074;SDS011;62428;51.412;5.432;2022-09-29T08:51:26;13.68;;;7.13;;
74074;SDS011;62428;51.412;5.432;2022-09-29T08:53:52;12.65;;;7.00;;
74074;SDS011;62428;51.412;5.432;2022-09-29T08:56:22;13.20;;;7.25;;
74074;SDS011;62428;51.412;5.432;2022-09-29T08:58:50;15.50;;;8.15;;
74074;SDS011;62428;51.412;5.432;2022-09-29T09:07:19;17.05;;;6.88;;
74074;SDS011;62428;51.412;5.432;2022-09-29T09:23:12;18.23;;;10.68;;
74074;SDS011;62428;51.412;5.432;2022-09-29T09:25:51;16.30;;;10.23;;
74074;SDS011;62428;51.412;5.432;2022-09-29T09:31:20;18.10;;;9.00;;
74074;SDS011;62428;51.412;5.432;2022-09-29T09:36:21;19.73;;;8.07;;
74074;SDS011;62428;51.412;5.432;2022-09-29T09:38:58;11.65;;;7.32;;
74074;SDS011;62428;51.412;5.432;2022-09-29T09:41:46;13.23;;;7.72;;
74074;SDS011;62428;51.412;5.432;2022-09-29T09:44:19;12.45;;;6.90;;
74074;SDS011;62428;51.412;5.432;2022-09-29T09:46:54;14.60;;;7.25;;
74074;SDS011;62428;51.412;5.432;2022-09-29T09:49:24;16.15;;;7.35;;
74074;SDS011;62428;51.412;5.432;2022-09-29T09:54:40;13.05;;;6.65;;
74074;SDS011;62428;51.412;5.432;2022-09-29T09:57:23;11.90;;;6.57;;
74074;SDS011;62428;51.412;5.432;2022-09-29T10:02:30;13.75;;;7.10;;
74074;SDS011;62428;51.412;5.432;2022-09-29T10:04:56;14.43;;;6.60;;
74074;SDS011;62428;51.412;5.432;2022-09-29T10:07:22;13.23;;;6.97;;
74074;SDS011;62428;51.412;5.432;2022-09-29T10:09:49;13.90;;;6.65;;
74074;SDS011;62428;51.412;5.432;2022-09-29T10:12:22;12.90;;;5.63;;
74074;SDS011;62428;51.412;5.432;2022-09-29T10:14:50;8.70;;;5.40;;
74074;SDS011;62428;51.412;5.432;2022-09-29T10:17:21;8.88;;;4.90;;
74074;SDS011;62428;51.412;5.432;2022-09-29T10:22:20;12.80;;;5.50;;
74074;SDS011;62428;51.412;5.432;2022-09-29T10:24:46;12.00;;;5.60;;
74074;SDS011;62428;51.412;5.432;2022-09-29T10:27:16;10.33;;;5.20;;
74074;SDS011;62428;51.412;5.432;2022-09-29T10:29:45;7.20;;;4.75;;
74074;SDS011;62428;51.412;5.432;2022-09-29T10:32:32;6.97;;;4.47;;
74074;SDS011;62428;51.412;5.432;2022-09-29T10:35:13;9.52;;;3.90;;
74074;SDS011;62428;51.412;5.432;2022-09-29T10:37:40;7.63;;;3.93;;
74074;SDS011;62428;51.412;5.432;2022-09-29T10:42:36;8.87;;;4.07;;
74074;SDS011;62428;51.412;5.432;2022-09-29T10:47:28;8.00;;;4.00;;
74074;SDS011;62428;51.412;5.432;2022-09-29T10:52:57;6.60;;;3.67;;
74074;SDS011;62428;51.412;5.432;2022-09-29T10:55:26;10.32;;;3.80;;
74074;SDS011;62428;51.412;5.432;2022-09-29T10:57:54;8.18;;;3.90;;
74074;SDS011;62428;51.412;5.432;2022-09-29T11:00:34;6.47;;;2.83;;
74074;SDS011;62428;51.412;5.432;2022-09-29T11:03:05;5.13;;;3.10;;
74074;SDS011;62428;51.412;5.432;2022-09-29T11:05:45;5.45;;;3.28;;
74074;SDS011;62428;51.412;5.432;2022-09-29T11:08:16;6.00;;;3.00;;
74074;SDS011;62428;51.412;5.432;2022-09-29T11:10:43;6.35;;;2.83;;
74074;SDS011;62428;51.412;5.432;2022-09-29T11:15:50;5.53;;;2.78;;
74074;SDS011;62428;51.412;5.432;2022-09-29T11:18:23;6.13;;;2.67;;
74074;SDS011;62428;51.412;5.432;2022-09-29T11:30:05;8.13;;;2.95;;
74074;SDS011;62428;51.412;5.432;2022-09-29T11:46:44;4.10;;;1.50;;
74074;SDS011;62428;51.412;5.432;2022-09-29T12:00:15;2.25;;;1.27;;
74074;SDS011;62428;51.412;5.432;2022-09-29T12:11:24;2.97;;;1.20;;
74074;SDS011;62428;51.412;5.432;2022-09-29T12:13:54;4.35;;;1.10;;
74074;SDS011;62428;51.412;5.432;2022-09-29T12:16:28;2.97;;;0.80;;
74074;SDS011;62428;51.412;5.432;2022-09-29T12:19:30;3.45;;;0.80;;
74074;SDS011;62428;51.412;5.432;2022-09-29T12:21:51;3.08;;;1.00;;
74074;SDS011;62428;51.412;5.432;2022-09-29T12:26:58;2.63;;;1.00;;
74074;SDS011;62428;51.412;5.432;2022-09-29T12:29:36;3.13;;;0.90;;
74074;SDS011;62428;51.412;5.432;2022-09-29T12:32:12;4.18;;;0.90;;
74074;SDS011;62428;51.412;5.432;2022-09-29T12:34:48;2.17;;;0.80;;
74074;SDS011;62428;51.412;5.432;2022-09-29T12:37:30;4.10;;;0.93;;
74074;SDS011;62428;51.412;5.432;2022-09-29T12:43:16;2.30;;;1.00;;
74074;SDS011;62428;51.412;5.432;2022-09-29T12:53:36;2.85;;;1.10;;
74074;SDS011;62428;51.412;5.432;2022-09-29T12:56:17;3.40;;;1.03;;
74074;SDS011;62428;51.412;5.432;2022-09-29T12:58:53;3.55;;;1.10;;
74074;SDS011;62428;51.412;5.432;2022-09-29T13:01:28;3.88;;;0.95;;
74074;SDS011;62428;51.412;5.432;2022-09-29T13:06:47;2.60;;;1.00;;
74074;SDS011;62428;51.412;5.432;2022-09-29T13:09:47;3.37;;;1.10;;
74074;SDS011;62428;51.412;5.432;2022-09-29T13:12:30;4.25;;;1.27;;
74074;SDS011;62428;51.412;5.432;2022-09-29T13:25:21;1.75;;;0.80;;
74074;SDS011;62428;51.412;5.432;2022-09-29T13:28:30;2.63;;;0.98;;
74074;SDS011;62428;51.412;5.432;2022-09-29T13:31:10;3.95;;;1.17;;
74074;SDS011;62428;51.412;5.432;2022-09-29T13:33:39;2.97;;;0.95;;
74074;SDS011;62428;51.412;5.432;2022-09-29T13:36:05;3.10;;;0.90;;
74074;SDS011;62428;51.412;5.432;2022-09-29T13:38:33;4.85;;;1.25;;
74074;SDS011;62428;51.412;5.432;2022-09-29T13:46:32;3.17;;;0.90;;
74074;SDS011;62428;51.412;5.432;2022-09-29T13:54:41;5.30;;;0.80;;
74074;SDS011;62428;51.412;5.432;2022-09-29T14:00:31;6.53;;;1.63;;
74074;SDS011;62428;51.412;5.432;2022-09-29T14:02:46;2.70;;;0.70;;
74074;SDS011;62428;51.412;5.432;2022-09-29T14:10:37;1.42;;;0.60;;
74074;SDS011;62428;51.412;5.432;2022-09-29T14:15:45;4.45;;;0.82;;
74074;SDS011;62428;51.412;5.432;2022-09-29T14:18:20;4.07;;;0.80;;
74074;SDS011;62428;51.412;5.432;2022-09-29T14:21:05;3.83;;;0.70;;
74074;SDS011;62428;51.412;5.432;2022-09-29T14:29:23;4.22;;;0.70;;
74074;SDS011;62428;51.412;5.432;2022-09-29T14:31:53;3.13;;;0.60;;
74074;SDS011;62428;51.412;5.432;2022-09-29T14:34:22;1.38;;;0.45;;
74074;SDS011;62428;51.412;5.432;2022-09-29T14:36:50;4.25;;;0.70;;
74074;SDS011;62428;51.412;5.432;2022-09-29T14:39:18;3.10;;;0.45;;
74074;SDS011;62428;51.412;5.432;2022-09-29T14:41:46;4.65;;;0.60;;
74074;SDS011;62428;51.412;5.432;2022-09-29T14:44:23;5.00;;;0.60;;
74074;SDS011;62428;51.412;5.432;2022-09-29T14:50:30;2.42;;;0.90;;
74074;SDS011;62428;51.412;5.432;2022-09-29T14:58:59;4.60;;;0.60;;
74074;SDS011;62428;51.412;5.432;2022-09-29T15:01:27;2.22;;;0.70;;
74074;SDS011;62428;51.412;5.432;2022-09-29T15:03:58;4.72;;;0.65;;
74074;SDS011;62428;51.412;5.432;2022-09-29T15:06:45;1.60;;;0.60;;
74074;SDS011;62428;51.412;5.432;2022-09-29T15:09:16;2.83;;;0.75;;
74074;SDS011;62428;51.412;5.432;2022-09-29T15:11:53;1.80;;;0.60;;
74074;SDS011;62428;51.412;5.432;2022-09-29T15:14:30;1.20;;;0.55;;
74074;SDS011;62428;51.412;5.432;2022-09-29T15:19:47;1.00;;;0.50;;
74074;SDS011;62428;51.412;5.432;2022-09-29T15:27:54;3.40;;;0.65;;
74074;SDS011;62428;51.412;5.432;2022-09-29T15:30:24;2.75;;;0.70;;
74074;SDS011;62428;51.412;5.432;2022-09-29T15:32:51;2.38;;;0.50;;
74074;SDS011;62428;51.412;5.432;2022-09-29T15:35:22;1.83;;;0.60;;
74074;SDS011;62428;51.412;5.432;2022-09-29T15:40:14;4.33;;;1.80;;
74074;SDS011;62428;51.412;5.432;2022-09-29T15:42:41;3.97;;;0.90;;
74074;SDS011;62428;51.412;5.432;2022-09-29T15:45:08;2.40;;;0.90;;
74074;SDS011;62428;51.412;5.432;2022-09-29T15:47:40;3.75;;;1.02;;
74074;SDS011;62428;51.412;5.432;2022-09-29T15:50:22;3.70;;;0.97;;
74074;SDS011;62428;51.412;5.432;2022-09-29T15:52:49;3.50;;;0.80;;
74074;SDS011;62428;51.412;5.432;2022-09-29T15:55:25;8.20;;;0.73;;
74074;SDS011;62428;51.412;5.432;2022-09-29T15:57:51;3.25;;;0.70;;
74074;SDS011;62428;51.412;5.432;2022-09-29T16:05:29;3.88;;;0.73;;
74074;SDS011;62428;51.412;5.432;2022-09-29T16:08:01;4.13;;;1.17;;
74074;SDS011;62428;51.412;5.432;2022-09-29T16:10:29;4.80;;;0.60;;
74074;SDS011;62428;51.412;5.432;2022-09-29T16:13:05;4.43;;;0.70;;
74074;SDS011;62428;51.412;5.432;2022-09-29T16:15:35;3.95;;;0.80;;
74074;SDS011;62428;51.412;5.432;2022-09-29T16:20:41;1.47;;;0.50;;
74074;SDS011;62428;51.412;5.432;2022-09-29T16:28:32;1.98;;;0.60;;
74074;SDS011;62428;51.412;5.432;2022-09-29T16:31:03;2.08;;;0.55;;
74074;SDS011;62428;51.412;5.432;2022-09-29T16:33:35;1.93;;;0.60;;
74074;SDS011;62428;51.412;5.432;2022-09-29T16:36:05;2.75;;;0.50;;
74074;SDS011;62428;51.412;5.432;2022-09-29T16:38:38;3.33;;;0.63;;
74074;SDS011;62428;51.412;5.432;2022-09-29T16:41:14;2.40;;;0.52;;
74074;SDS011;62428;51.412;5.432;2022-09-29T16:47:19;1.60;;;0.70;;
74074;SDS011;62428;51.412;5.432;2022-09-29T16:49:45;2.97;;;0.63;;
74074;SDS011;62428;51.412;5.432;2022-09-29T16:54:47;2.67;;;0.60;;
74074;SDS011;62428;51.412;5.432;2022-09-29T16:57:24;3.67;;;0.70;;
74074;SDS011;62428;51.412;5.432;2022-09-29T16:59:55;2.90;;;0.82;;
74074;SDS011;62428;51.412;5.432;2022-09-29T17:02:23;2.58;;;0.85;;
74074;SDS011;62428;51.412;5.432;2022-09-29T17:04:50;2.10;;;0.80;;
74074;SDS011;62428;51.412;5.432;2022-09-29T17:07:17;3.35;;;1.10;;
74074;SDS011;62428;51.412;5.432;2022-09-29T17:09:44;2.33;;;1.27;;
74074;SDS011;62428;51.412;5.432;2022-09-29T17:12:12;6.53;;;1.15;;
74074;SDS011;62428;51.412;5.432;2022-09-29T17:14:39;3.90;;;1.00;;
74074;SDS011;62428;51.412;5.432;2022-09-29T17:17:05;4.80;;;1.20;;
74074;SDS011;62428;51.412;5.432;2022-09-29T17:19:30;4.93;;;1.90;;
74074;SDS011;62428;51.412;5.432;2022-09-29T17:21:56;6.93;;;1.73;;
74074;SDS011;62428;51.412;5.432;2022-09-29T17:24:23;5.05;;;1.75;;
74074;SDS011;62428;51.412;5.432;2022-09-29T17:26:48;9.93;;;1.73;;
74074;SDS011;62428;51.412;5.432;2022-09-29T17:29:32;6.18;;;1.50;;
74074;SDS011;62428;51.412;5.432;2022-09-29T17:31:59;5.63;;;1.40;;
74074;SDS011;62428;51.412;5.432;2022-09-29T17:34:26;2.95;;;1.60;;
74074;SDS011;62428;51.412;5.432;2022-09-29T17:36:58;5.15;;;1.52;;
74074;SDS011;62428;51.412;5.432;2022-09-29T17:39:26;5.10;;;2.33;;
74074;SDS011;62428;51.412;5.432;2022-09-29T17:41:51;5.28;;;2.22;;
74074;SDS011;62428;51.412;5.432;2022-09-29T17:44:17;15.20;;;3.23;;
74074;SDS011;62428;51.412;5.432;2022-09-29T17:46:42;7.25;;;3.42;;
74074;SDS011;62428;51.412;5.432;2022-09-29T17:49:13;6.57;;;3.43;;
74074;SDS011;62428;51.412;5.432;2022-09-29T17:51:40;9.75;;;3.72;;
74074;SDS011;62428;51.412;5.432;2022-09-29T17:54:05;6.05;;;2.88;;
74074;SDS011;62428;51.412;5.432;2022-09-29T17:56:31;6.30;;;2.70;;
74074;SDS011;62428;51.412;5.432;2022-09-29T17:59:04;5.30;;;2.75;;
74074;SDS011;62428;51.412;5.432;2022-09-29T18:01:30;4.17;;;1.90;;
74074;SDS011;62428;51.412;5.432;2022-09-29T18:04:00;5.50;;;1.88;;
74074;SDS011;62428;51.412;5.432;2022-09-29T18:06:27;3.67;;;1.50;;
74074;SDS011;62428;51.412;5.432;2022-09-29T18:08:53;2.15;;;1.30;;
74074;SDS011;62428;51.412;5.432;2022-09-29T18:11:20;5.13;;;1.52;;
74074;SDS011;62428;51.412;5.432;2022-09-29T18:13:47;3.33;;;1.40;;
74074;SDS011;62428;51.412;5.432;2022-09-29T18:16:14;4.25;;;1.33;;
74074;SDS011;62428;51.412;5.432;2022-09-29T18:18:41;3.27;;;1.30;;
74074;SDS011;62428;51.412;5.432;2022-09-29T18:21:06;4.75;;;1.60;;
74074;SDS011;62428;51.412;5.432;2022-09-29T18:23:32;3.83;;;1.40;;
74074;SDS011;62428;51.412;5.432;2022-09-29T18:25:59;3.50;;;1.40;;
74074;SDS011;62428;51.412;5.432;2022-09-29T18:28:25;3.83;;;1.52;;